sensor_id;sensor_type;location;lat;lon;timestamp;pressure;altitude;pressure_sealevel;temperature
67353;BMP180;54238;52.278;21.056;2022-12-18T00:01:57;101682.00;;;-4.10
67353;BMP180;54238;52.278;21.056;2022-12-18T00:04:27;101685.60;;;-4.12
67353;BMP180;54238;52.278;21.056;2022-12-18T00:06:55;101692.40;;;-4.20
67353;BMP180;54238;52.278;21.056;2022-12-18T00:09:25;101691.80;;;-4.10
67353;BMP180;54238;52.278;21.056;2022-12-18T00:11:54;101686.60;;;-4.00
67353;BMP180;54238;52.278;21.056;2022-12-18T00:14:26;101692.60;;;-3.80
67353;BMP180;54238;52.278;21.056;2022-12-18T00:16:53;101690.40;;;-3.64
67353;BMP180;54238;52.278;21.056;2022-12-18T00:19:20;101699.80;;;-3.60
67353;BMP180;54238;52.278;21.056;2022-12-18T00:21:49;101702.40;;;-3.70
67353;BMP180;54238;52.278;21.056;2022-12-18T00:24:16;101710.80;;;-3.80
67353;BMP180;54238;52.278;21.056;2022-12-18T00:26:46;101714.20;;;-3.90
67353;BMP180;54238;52.278;21.056;2022-12-18T00:29:15;101716.00;;;-3.94
67353;BMP180;54238;52.278;21.056;2022-12-18T00:31:47;101720.80;;;-4.10
67353;BMP180;54238;52.278;21.056;2022-12-18T00:34:16;101716.40;;;-4.20
67353;BMP180;54238;52.278;21.056;2022-12-18T00:36:47;101722.60;;;-4.20
67353;BMP180;54238;52.278;21.056;2022-12-18T00:39:21;101726.20;;;-4.06
67353;BMP180;54238;52.278;21.056;2022-12-18T00:41:53;101731.00;;;-3.84
67353;BMP180;54238;52.278;21.056;2022-12-18T00:44:39;101731.20;;;-3.68
67353;BMP180;54238;52.278;21.056;2022-12-18T00:47:10;101734.80;;;-3.60
67353;BMP180;54238;52.278;21.056;2022-12-18T00:49:42;101737.40;;;-3.60
67353;BMP180;54238;52.278;21.056;2022-12-18T00:52:09;101731.80;;;-3.54
67353;BMP180;54238;52.278;21.056;2022-12-18T00:54:36;101740.00;;;-3.60
67353;BMP180;54238;52.278;21.056;2022-12-18T00:57:03;101737.60;;;-3.70
67353;BMP180;54238;52.278;21.056;2022-12-18T00:59:33;101738.00;;;-3.80
67353;BMP180;54238;52.278;21.056;2022-12-18T01:02:02;101744.60;;;-3.90
67353;BMP180;54238;52.278;21.056;2022-12-18T01:04:35;101747.60;;;-3.90
67353;BMP180;54238;52.278;21.056;2022-12-18T01:07:04;101756.20;;;-3.90
67353;BMP180;54238;52.278;21.056;2022-12-18T01:09:36;101756.80;;;-3.90
67353;BMP180;54238;52.278;21.056;2022-12-18T01:12:04;101760.80;;;-3.92
67353;BMP180;54238;52.278;21.056;2022-12-18T01:14:32;101757.60;;;-3.96
67353;BMP180;54238;52.278;21.056;2022-12-18T01:16:59;101763.80;;;-3.80
67353;BMP180;54238;52.278;21.056;2022-12-18T01:19:32;101760.60;;;-3.60
67353;BMP180;54238;52.278;21.056;2022-12-18T01:22:02;101759.20;;;-3.40
67353;BMP180;54238;52.278;21.056;2022-12-18T01:24:29;101767.60;;;-3.20
67353;BMP180;54238;52.278;21.056;2022-12-18T01:26:58;101770.40;;;-3.20
67353;BMP180;54238;52.278;21.056;2022-12-18T01:29:27;101771.80;;;-3.18
67353;BMP180;54238;52.278;21.056;2022-12-18T01:31:57;101777.80;;;-3.20
67353;BMP180;54238;52.278;21.056;2022-12-18T01:34:27;101778.40;;;-3.30
67353;BMP180;54238;52.278;21.056;2022-12-18T01:36:54;101791.00;;;-3.30
67353;BMP180;54238;52.278;21.056;2022-12-18T01:39:28;101788.80;;;-3.34
67353;BMP180;54238;52.278;21.056;2022-12-18T01:41:55;101789.00;;;-3.40
67353;BMP180;54238;52.278;21.056;2022-12-18T01:47:30;101803.80;;;-3.50
67353;BMP180;54238;52.278;21.056;2022-12-18T01:52:51;101814.20;;;-3.70
67353;BMP180;54238;52.278;21.056;2022-12-18T01:55:26;101811.80;;;-3.60
67353;BMP180;54238;52.278;21.056;2022-12-18T01:57:58;101809.40;;;-3.42
67353;BMP180;54238;52.278;21.056;2022-12-18T02:00:27;101819.00;;;-3.30
67353;BMP180;54238;52.278;21.056;2022-12-18T02:02:58;101816.40;;;-3.24
67353;BMP180;54238;52.278;21.056;2022-12-18T02:05:47;101820.60;;;-3.30
67353;BMP180;54238;52.278;21.056;2022-12-18T02:13:32;101836.00;;;-3.66
67353;BMP180;54238;52.278;21.056;2022-12-18T02:19:03;101852.40;;;-3.80
67353;BMP180;54238;52.278;21.056;2022-12-18T02:21:56;101853.20;;;-3.90
67353;BMP180;54238;52.278;21.056;2022-12-18T02:27:35;101858.80;;;-4.00
67353;BMP180;54238;52.278;21.056;2022-12-18T02:30:10;101858.00;;;-3.90
67353;BMP180;54238;52.278;21.056;2022-12-18T02:32:46;101858.80;;;-3.80
67353;BMP180;54238;52.278;21.056;2022-12-18T02:35:23;101860.60;;;-3.80
67353;BMP180;54238;52.278;21.056;2022-12-18T02:37:57;101868.80;;;-3.80
67353;BMP180;54238;52.278;21.056;2022-12-18T02:40:30;101880.20;;;-3.80
67353;BMP180;54238;52.278;21.056;2022-12-18T02:43:13;101871.40;;;-3.90
67353;BMP180;54238;52.278;21.056;2022-12-18T02:46:35;101876.00;;;-4.00
67353;BMP180;54238;52.278;21.056;2022-12-18T02:52:41;101879.20;;;-4.16
67353;BMP180;54238;52.278;21.056;2022-12-18T02:58:46;101890.80;;;-4.20
67353;BMP180;54238;52.278;21.056;2022-12-18T03:01:45;101900.80;;;-4.20
67353;BMP180;54238;52.278;21.056;2022-12-18T03:04:19;101904.20;;;-4.10
67353;BMP180;54238;52.278;21.056;2022-12-18T03:06:55;101911.60;;;-3.90
67353;BMP180;54238;52.278;21.056;2022-12-18T03:09:34;101918.80;;;-3.70
67353;BMP180;54238;52.278;21.056;2022-12-18T03:12:13;101927.00;;;-3.60
67353;BMP180;54238;52.278;21.056;2022-12-18T03:17:36;101937.60;;;-3.72
67353;BMP180;54238;52.278;21.056;2022-12-18T03:20:18;101935.60;;;-3.90
67353;BMP180;54238;52.278;21.056;2022-12-18T03:22:59;101938.60;;;-4.04
67353;BMP180;54238;52.278;21.056;2022-12-18T03:25:38;101941.20;;;-4.20
67353;BMP180;54238;52.278;21.056;2022-12-18T03:28:12;101938.00;;;-4.32
67353;BMP180;54238;52.278;21.056;2022-12-18T03:30:43;101943.60;;;-4.40
67353;BMP180;54238;52.278;21.056;2022-12-18T03:35:58;101943.20;;;-4.20
67353;BMP180;54238;52.278;21.056;2022-12-18T03:38:28;101945.20;;;-4.10
67353;BMP180;54238;52.278;21.056;2022-12-18T03:41:18;101949.20;;;-4.00
67353;BMP180;54238;52.278;21.056;2022-12-18T03:49:53;101971.40;;;-4.02
67353;BMP180;54238;52.278;21.056;2022-12-18T03:52:30;101969.20;;;-4.10
67353;BMP180;54238;52.278;21.056;2022-12-18T03:55:03;101968.40;;;-4.20
67353;BMP180;54238;52.278;21.056;2022-12-18T03:57:35;101966.40;;;-4.30
67353;BMP180;54238;52.278;21.056;2022-12-18T04:00:15;101962.00;;;-4.40
67353;BMP180;54238;52.278;21.056;2022-12-18T04:03:01;101969.80;;;-4.40
67353;BMP180;54238;52.278;21.056;2022-12-18T04:05:30;101977.20;;;-4.50
67353;BMP180;54238;52.278;21.056;2022-12-18T04:08:01;101980.20;;;-4.50
67353;BMP180;54238;52.278;21.056;2022-12-18T04:10:29;101978.60;;;-4.50
67353;BMP180;54238;52.278;21.056;2022-12-18T04:12:58;101984.40;;;-4.50
67353;BMP180;54238;52.278;21.056;2022-12-18T04:15:28;101983.20;;;-4.40
67353;BMP180;54238;52.278;21.056;2022-12-18T04:17:57;101981.60;;;-4.20
67353;BMP180;54238;52.278;21.056;2022-12-18T04:20:24;101991.80;;;-3.98
67353;BMP180;54238;52.278;21.056;2022-12-18T04:22:53;101997.20;;;-3.80
67353;BMP180;54238;52.278;21.056;2022-12-18T04:25:23;102001.60;;;-3.80
67353;BMP180;54238;52.278;21.056;2022-12-18T04:27:50;102007.80;;;-3.80
67353;BMP180;54238;52.278;21.056;2022-12-18T04:30:19;102013.20;;;-3.90
67353;BMP180;54238;52.278;21.056;2022-12-18T04:32:49;102012.00;;;-4.00
67353;BMP180;54238;52.278;21.056;2022-12-18T04:35:21;102013.60;;;-4.10
67353;BMP180;54238;52.278;21.056;2022-12-18T04:37:50;102020.40;;;-4.20
67353;BMP180;54238;52.278;21.056;2022-12-18T04:40:18;102022.40;;;-4.34
67353;BMP180;54238;52.278;21.056;2022-12-18T04:42:46;102019.60;;;-4.40
67353;BMP180;54238;52.278;21.056;2022-12-18T04:45:15;102023.20;;;-4.50
67353;BMP180;54238;52.278;21.056;2022-12-18T04:47:43;102030.20;;;-4.60
67353;BMP180;54238;52.278;21.056;2022-12-18T04:50:10;102034.60;;;-4.60
67353;BMP180;54238;52.278;21.056;2022-12-18T04:52:37;102039.40;;;-4.62
67353;BMP180;54238;52.278;21.056;2022-12-18T04:55:06;102045.40;;;-4.60
67353;BMP180;54238;52.278;21.056;2022-12-18T04:57:37;102043.20;;;-4.50
67353;BMP180;54238;52.278;21.056;2022-12-18T05:00:05;102045.60;;;-4.30
67353;BMP180;54238;52.278;21.056;2022-12-18T05:02:38;102049.80;;;-4.10
67353;BMP180;54238;52.278;21.056;2022-12-18T05:05:11;102053.40;;;-3.90
67353;BMP180;54238;52.278;21.056;2022-12-18T05:07:41;102055.80;;;-3.90
67353;BMP180;54238;52.278;21.056;2022-12-18T05:10:09;102058.40;;;-3.90
67353;BMP180;54238;52.278;21.056;2022-12-18T05:12:38;102061.60;;;-4.00
67353;BMP180;54238;52.278;21.056;2022-12-18T05:15:32;102066.20;;;-4.10
67353;BMP180;54238;52.278;21.056;2022-12-18T05:18:03;102069.00;;;-4.10
67353;BMP180;54238;52.278;21.056;2022-12-18T05:20:35;102074.00;;;-4.20
67353;BMP180;54238;52.278;21.056;2022-12-18T05:23:02;102081.80;;;-4.24
67353;BMP180;54238;52.278;21.056;2022-12-18T05:25:29;102073.20;;;-4.30
67353;BMP180;54238;52.278;21.056;2022-12-18T05:27:57;102076.00;;;-4.40
67353;BMP180;54238;52.278;21.056;2022-12-18T05:30:27;102085.00;;;-4.40
67353;BMP180;54238;52.278;21.056;2022-12-18T05:32:56;102090.60;;;-4.50
67353;BMP180;54238;52.278;21.056;2022-12-18T05:35:25;102091.80;;;-4.60
67353;BMP180;54238;52.278;21.056;2022-12-18T05:37:57;102098.40;;;-4.70
67353;BMP180;54238;52.278;21.056;2022-12-18T05:40:26;102099.00;;;-4.78
67353;BMP180;54238;52.278;21.056;2022-12-18T05:42:56;102099.80;;;-4.80
67353;BMP180;54238;52.278;21.056;2022-12-18T05:45:25;102101.80;;;-4.80
67353;BMP180;54238;52.278;21.056;2022-12-18T05:47:52;102108.40;;;-4.70
67353;BMP180;54238;52.278;21.056;2022-12-18T05:50:22;102113.40;;;-4.50
67353;BMP180;54238;52.278;21.056;2022-12-18T05:52:52;102121.80;;;-4.30
67353;BMP180;54238;52.278;21.056;2022-12-18T05:55:26;102125.40;;;-4.20
67353;BMP180;54238;52.278;21.056;2022-12-18T05:57:53;102119.00;;;-4.14
67353;BMP180;54238;52.278;21.056;2022-12-18T06:00:24;102126.00;;;-4.20
67353;BMP180;54238;52.278;21.056;2022-12-18T06:02:53;102128.80;;;-4.20
67353;BMP180;54238;52.278;21.056;2022-12-18T06:05:23;102136.20;;;-4.30
67353;BMP180;54238;52.278;21.056;2022-12-18T06:07:55;102140.60;;;-4.40
67353;BMP180;54238;52.278;21.056;2022-12-18T06:10:29;102144.20;;;-4.56
67353;BMP180;54238;52.278;21.056;2022-12-18T06:13:03;102147.40;;;-4.62
67353;BMP180;54238;52.278;21.056;2022-12-18T06:15:37;102144.60;;;-4.70
67353;BMP180;54238;52.278;21.056;2022-12-18T06:18:05;102142.60;;;-4.80
67353;BMP180;54238;52.278;21.056;2022-12-18T06:20:32;102145.00;;;-4.80
67353;BMP180;54238;52.278;21.056;2022-12-18T06:23:02;102150.40;;;-4.80
67353;BMP180;54238;52.278;21.056;2022-12-18T06:25:30;102155.80;;;-4.84
67353;BMP180;54238;52.278;21.056;2022-12-18T06:27:57;102160.80;;;-4.80
67353;BMP180;54238;52.278;21.056;2022-12-18T06:30:51;102173.60;;;-4.62
67353;BMP180;54238;52.278;21.056;2022-12-18T06:33:21;102176.40;;;-4.60
67353;BMP180;54238;52.278;21.056;2022-12-18T06:35:50;102186.00;;;-4.50
67353;BMP180;54238;52.278;21.056;2022-12-18T06:38:17;102192.20;;;-4.40
67353;BMP180;54238;52.278;21.056;2022-12-18T06:40:46;102197.40;;;-4.50
67353;BMP180;54238;52.278;21.056;2022-12-18T06:43:13;102196.60;;;-4.60
67353;BMP180;54238;52.278;21.056;2022-12-18T06:45:41;102197.20;;;-4.70
67353;BMP180;54238;52.278;21.056;2022-12-18T06:48:10;102208.20;;;-4.70
67353;BMP180;54238;52.278;21.056;2022-12-18T06:50:42;102207.60;;;-4.80
67353;BMP180;54238;52.278;21.056;2022-12-18T06:53:13;102213.20;;;-4.80
67353;BMP180;54238;52.278;21.056;2022-12-18T06:55:41;102211.00;;;-4.90
67353;BMP180;54238;52.278;21.056;2022-12-18T06:58:10;102216.00;;;-4.96
67353;BMP180;54238;52.278;21.056;2022-12-18T07:00:37;102221.20;;;-5.00
67353;BMP180;54238;52.278;21.056;2022-12-18T07:03:07;102228.00;;;-5.00
67353;BMP180;54238;52.278;21.056;2022-12-18T07:05:40;102231.20;;;-4.80
67353;BMP180;54238;52.278;21.056;2022-12-18T07:08:07;102238.40;;;-4.60
67353;BMP180;54238;52.278;21.056;2022-12-18T07:10:42;102241.40;;;-4.40
67353;BMP180;54238;52.278;21.056;2022-12-18T07:13:09;102241.20;;;-4.20
67353;BMP180;54238;52.278;21.056;2022-12-18T07:15:39;102250.40;;;-4.10
67353;BMP180;54238;52.278;21.056;2022-12-18T07:18:09;102249.40;;;-4.08
67353;BMP180;54238;52.278;21.056;2022-12-18T07:20:46;102257.40;;;-4.02
67353;BMP180;54238;52.278;21.056;2022-12-18T07:23:13;102265.80;;;-4.06
67353;BMP180;54238;52.278;21.056;2022-12-18T07:25:43;102262.40;;;-4.12
67353;BMP180;54238;52.278;21.056;2022-12-18T07:28:12;102270.60;;;-4.20
67353;BMP180;54238;52.278;21.056;2022-12-18T07:30:39;102271.60;;;-4.26
67353;BMP180;54238;52.278;21.056;2022-12-18T07:33:06;102269.20;;;-4.30
67353;BMP180;54238;52.278;21.056;2022-12-18T07:35:36;102272.80;;;-4.30
67353;BMP180;54238;52.278;21.056;2022-12-18T07:38:07;102270.20;;;-4.30
67353;BMP180;54238;52.278;21.056;2022-12-18T07:40:34;102275.20;;;-4.40
67353;BMP180;54238;52.278;21.056;2022-12-18T07:43:04;102279.80;;;-4.26
67353;BMP180;54238;52.278;21.056;2022-12-18T07:45:31;102279.00;;;-4.02
67353;BMP180;54238;52.278;21.056;2022-12-18T07:47:58;102286.00;;;-3.80
67353;BMP180;54238;52.278;21.056;2022-12-18T07:50:30;102295.00;;;-3.60
67353;BMP180;54238;52.278;21.056;2022-12-18T07:52:58;102292.80;;;-3.42
67353;BMP180;54238;52.278;21.056;2022-12-18T07:55:31;102298.40;;;-3.40
67353;BMP180;54238;52.278;21.056;2022-12-18T07:58:04;102299.80;;;-3.40
67353;BMP180;54238;52.278;21.056;2022-12-18T08:00:31;102307.80;;;-3.40
67353;BMP180;54238;52.278;21.056;2022-12-18T08:02:59;102313.80;;;-3.50
67353;BMP180;54238;52.278;21.056;2022-12-18T08:05:29;102324.60;;;-3.60
67353;BMP180;54238;52.278;21.056;2022-12-18T08:07:58;102327.80;;;-3.70
67353;BMP180;54238;52.278;21.056;2022-12-18T08:10:28;102332.40;;;-3.80
67353;BMP180;54238;52.278;21.056;2022-12-18T08:12:57;102332.80;;;-3.82
67353;BMP180;54238;52.278;21.056;2022-12-18T08:15:24;102331.20;;;-3.90
67353;BMP180;54238;52.278;21.056;2022-12-18T08:17:58;102327.80;;;-4.00
67353;BMP180;54238;52.278;21.056;2022-12-18T08:20:27;102325.40;;;-4.00
67353;BMP180;54238;52.278;21.056;2022-12-18T08:22:55;102335.40;;;-3.98
67353;BMP180;54238;52.278;21.056;2022-12-18T08:25:27;102332.80;;;-3.90
67353;BMP180;54238;52.278;21.056;2022-12-18T08:27:59;102336.80;;;-3.76
67353;BMP180;54238;52.278;21.056;2022-12-18T08:30:29;102344.60;;;-3.60
67353;BMP180;54238;52.278;21.056;2022-12-18T08:32:56;102353.40;;;-3.40
67353;BMP180;54238;52.278;21.056;2022-12-18T08:35:28;102356.00;;;-3.24
67353;BMP180;54238;52.278;21.056;2022-12-18T08:37:58;102361.40;;;-3.20
67353;BMP180;54238;52.278;21.056;2022-12-18T08:40:25;102362.80;;;-3.20
67353;BMP180;54238;52.278;21.056;2022-12-18T08:42:56;102370.20;;;-3.20
67353;BMP180;54238;52.278;21.056;2022-12-18T08:45:38;102377.20;;;-3.20
67353;BMP180;54238;52.278;21.056;2022-12-18T08:51:04;102378.20;;;-3.20
67353;BMP180;54238;52.278;21.056;2022-12-18T08:53:31;102371.80;;;-3.30
67353;BMP180;54238;52.278;21.056;2022-12-18T08:55:58;102373.40;;;-3.40
67353;BMP180;54238;52.278;21.056;2022-12-18T09:01:25;102374.20;;;-3.48
67353;BMP180;54238;52.278;21.056;2022-12-18T09:03:55;102381.40;;;-3.36
67353;BMP180;54238;52.278;21.056;2022-12-18T09:06:23;102384.00;;;-3.20
67353;BMP180;54238;52.278;21.056;2022-12-18T09:11:25;102389.00;;;-2.90
67353;BMP180;54238;52.278;21.056;2022-12-18T09:16:32;102397.40;;;-2.70
67353;BMP180;54238;52.278;21.056;2022-12-18T09:21:44;102398.60;;;-3.00
67353;BMP180;54238;52.278;21.056;2022-12-18T09:26:53;102403.20;;;-3.20
67353;BMP180;54238;52.278;21.056;2022-12-18T09:31:58;102405.40;;;-3.20
67353;BMP180;54238;52.278;21.056;2022-12-18T09:34:28;102405.00;;;-3.28
67353;BMP180;54238;52.278;21.056;2022-12-18T09:37:02;102397.80;;;-3.28
67353;BMP180;54238;52.278;21.056;2022-12-18T09:39:29;102403.60;;;-3.20
67353;BMP180;54238;52.278;21.056;2022-12-18T09:41:59;102406.20;;;-3.08
67353;BMP180;54238;52.278;21.056;2022-12-18T09:47:35;102401.20;;;-2.58
67353;BMP180;54238;52.278;21.056;2022-12-18T09:50:32;102411.60;;;-2.38
67353;BMP180;54238;52.278;21.056;2022-12-18T09:53:26;102410.80;;;-2.20
67353;BMP180;54238;52.278;21.056;2022-12-18T09:56:00;102421.40;;;-2.10
67353;BMP180;54238;52.278;21.056;2022-12-18T10:00:59;102419.80;;;-2.20
67353;BMP180;54238;52.278;21.056;2022-12-18T10:03:26;102415.20;;;-2.30
67353;BMP180;54238;52.278;21.056;2022-12-18T10:06:11;102417.60;;;-2.30
67353;BMP180;54238;52.278;21.056;2022-12-18T10:14:21;102424.00;;;-2.38
67353;BMP180;54238;52.278;21.056;2022-12-18T10:27:29;102431.80;;;-2.62
67353;BMP180;54238;52.278;21.056;2022-12-18T10:30:04;102436.00;;;-2.50
67353;BMP180;54238;52.278;21.056;2022-12-18T10:32:35;102439.20;;;-2.40
67353;BMP180;54238;52.278;21.056;2022-12-18T10:35:02;102434.00;;;-2.30
67353;BMP180;54238;52.278;21.056;2022-12-18T10:37:35;102430.20;;;-2.20
67353;BMP180;54238;52.278;21.056;2022-12-18T10:40:15;102434.20;;;-2.20
67353;BMP180;54238;52.278;21.056;2022-12-18T10:42:47;102437.60;;;-2.30
67353;BMP180;54238;52.278;21.056;2022-12-18T10:45:24;102434.20;;;-2.40
67353;BMP180;54238;52.278;21.056;2022-12-18T10:47:53;102424.00;;;-2.50
67353;BMP180;54238;52.278;21.056;2022-12-18T10:50:31;102434.80;;;-2.60
67353;BMP180;54238;52.278;21.056;2022-12-18T10:53:03;102428.00;;;-2.70
67353;BMP180;54238;52.278;21.056;2022-12-18T10:55:38;102424.20;;;-2.80
67353;BMP180;54238;52.278;21.056;2022-12-18T10:58:30;102432.00;;;-2.80
67353;BMP180;54238;52.278;21.056;2022-12-18T11:01:16;102425.20;;;-2.70
67353;BMP180;54238;52.278;21.056;2022-12-18T11:06:23;102441.20;;;-2.30
67353;BMP180;54238;52.278;21.056;2022-12-18T11:09:22;102440.40;;;-2.20
67353;BMP180;54238;52.278;21.056;2022-12-18T11:11:56;102438.40;;;-2.10
67353;BMP180;54238;52.278;21.056;2022-12-18T11:16:57;102441.00;;;-2.30
67353;BMP180;54238;52.278;21.056;2022-12-18T11:19:38;102444.60;;;-2.40
67353;BMP180;54238;52.278;21.056;2022-12-18T11:22:31;102445.20;;;-2.40
67353;BMP180;54238;52.278;21.056;2022-12-18T11:25:30;102450.80;;;-2.50
67353;BMP180;54238;52.278;21.056;2022-12-18T11:28:06;102446.80;;;-2.50
67353;BMP180;54238;52.278;21.056;2022-12-18T11:31:28;102449.20;;;-2.40
67353;BMP180;54238;52.278;21.056;2022-12-18T11:34:08;102454.60;;;-2.40
67353;BMP180;54238;52.278;21.056;2022-12-18T11:36:46;102449.80;;;-2.40
67353;BMP180;54238;52.278;21.056;2022-12-18T11:39:40;102448.80;;;-2.50
67353;BMP180;54238;52.278;21.056;2022-12-18T11:47:37;102451.20;;;-2.20
67353;BMP180;54238;52.278;21.056;2022-12-18T11:50:18;102449.40;;;-2.08
67353;BMP180;54238;52.278;21.056;2022-12-18T11:52:48;102459.20;;;-1.90
67353;BMP180;54238;52.278;21.056;2022-12-18T12:01:50;102460.40;;;-1.90
67353;BMP180;54238;52.278;21.056;2022-12-18T12:04:57;102464.20;;;-2.00
67353;BMP180;54238;52.278;21.056;2022-12-18T12:16:37;102467.00;;;-2.20
67353;BMP180;54238;52.278;21.056;2022-12-18T12:31:49;102459.00;;;-1.58
67353;BMP180;54238;52.278;21.056;2022-12-18T12:41:01;102479.40;;;-0.90
67353;BMP180;54238;52.278;21.056;2022-12-18T12:43:46;102484.40;;;-0.90
67353;BMP180;54238;52.278;21.056;2022-12-18T12:46:19;102493.00;;;-0.98
67353;BMP180;54238;52.278;21.056;2022-12-18T12:51:32;102503.60;;;-1.10
67353;BMP180;54238;52.278;21.056;2022-12-18T12:54:10;102494.40;;;-1.14
67353;BMP180;54238;52.278;21.056;2022-12-18T12:56:45;102497.60;;;-1.20
67353;BMP180;54238;52.278;21.056;2022-12-18T13:02:21;102498.80;;;-1.40
67353;BMP180;54238;52.278;21.056;2022-12-18T13:05:34;102509.60;;;-1.50
67353;BMP180;54238;52.278;21.056;2022-12-18T13:08:21;102520.60;;;-1.58
67353;BMP180;54238;52.278;21.056;2022-12-18T13:10:49;102520.40;;;-1.60
67353;BMP180;54238;52.278;21.056;2022-12-18T13:13:52;102515.20;;;-1.62
67353;BMP180;54238;52.278;21.056;2022-12-18T13:16:25;102525.20;;;-1.74
67353;BMP180;54238;52.278;21.056;2022-12-18T13:18:57;102535.00;;;-1.90
67353;BMP180;54238;52.278;21.056;2022-12-18T13:21:31;102535.20;;;-1.88
67353;BMP180;54238;52.278;21.056;2022-12-18T13:24:24;102537.60;;;-1.76
67353;BMP180;54238;52.278;21.056;2022-12-18T13:26:51;102538.60;;;-1.60
67353;BMP180;54238;52.278;21.056;2022-12-18T13:32:23;102533.60;;;-1.50
67353;BMP180;54238;52.278;21.056;2022-12-18T13:37:56;102540.20;;;-1.64
67353;BMP180;54238;52.278;21.056;2022-12-18T13:48:26;102546.60;;;-1.96
67353;BMP180;54238;52.278;21.056;2022-12-18T13:53:32;102550.60;;;-2.30
67353;BMP180;54238;52.278;21.056;2022-12-18T13:56:05;102556.60;;;-2.48
67353;BMP180;54238;52.278;21.056;2022-12-18T13:58:34;102557.40;;;-2.50
67353;BMP180;54238;52.278;21.056;2022-12-18T14:01:04;102566.20;;;-2.50
67353;BMP180;54238;52.278;21.056;2022-12-18T14:03:33;102573.80;;;-2.50
67353;BMP180;54238;52.278;21.056;2022-12-18T14:06:12;102571.60;;;-2.48
67353;BMP180;54238;52.278;21.056;2022-12-18T14:08:43;102574.20;;;-2.40
67353;BMP180;54238;52.278;21.056;2022-12-18T14:11:24;102580.20;;;-2.50
67353;BMP180;54238;52.278;21.056;2022-12-18T14:13:56;102576.80;;;-2.60
67353;BMP180;54238;52.278;21.056;2022-12-18T14:16:27;102573.40;;;-2.80
67353;BMP180;54238;52.278;21.056;2022-12-18T14:18:58;102580.60;;;-2.90
67353;BMP180;54238;52.278;21.056;2022-12-18T14:21:30;102583.40;;;-3.08
67353;BMP180;54238;52.278;21.056;2022-12-18T14:24:15;102587.40;;;-3.20
67353;BMP180;54238;52.278;21.056;2022-12-18T14:26:49;102584.60;;;-3.30
67353;BMP180;54238;52.278;21.056;2022-12-18T14:29:28;102583.80;;;-3.40
67353;BMP180;54238;52.278;21.056;2022-12-18T14:32:24;102577.00;;;-3.40
67353;BMP180;54238;52.278;21.056;2022-12-18T14:34:56;102569.00;;;-3.30
67353;BMP180;54238;52.278;21.056;2022-12-18T14:37:28;102567.40;;;-3.20
67353;BMP180;54238;52.278;21.056;2022-12-18T14:40:00;102565.80;;;-3.10
67353;BMP180;54238;52.278;21.056;2022-12-18T14:42:35;102573.00;;;-3.00
67353;BMP180;54238;52.278;21.056;2022-12-18T14:48:18;102586.40;;;-2.94
67353;BMP180;54238;52.278;21.056;2022-12-18T14:51:01;102585.40;;;-2.90
67353;BMP180;54238;52.278;21.056;2022-12-18T14:53:42;102588.40;;;-3.04
67353;BMP180;54238;52.278;21.056;2022-12-18T14:56:19;102585.20;;;-3.20
67353;BMP180;54238;52.278;21.056;2022-12-18T14:58:58;102591.20;;;-3.30
67353;BMP180;54238;52.278;21.056;2022-12-18T15:01:45;102594.60;;;-3.38
67353;BMP180;54238;52.278;21.056;2022-12-18T15:07:19;102602.00;;;-3.20
67353;BMP180;54238;52.278;21.056;2022-12-18T15:10:09;102600.20;;;-3.08
67353;BMP180;54238;52.278;21.056;2022-12-18T15:12:42;102607.00;;;-3.00
67353;BMP180;54238;52.278;21.056;2022-12-18T15:23:35;102616.80;;;-3.20
67353;BMP180;54238;52.278;21.056;2022-12-18T15:26:07;102615.20;;;-3.30
67353;BMP180;54238;52.278;21.056;2022-12-18T15:28:54;102613.20;;;-3.40
67353;BMP180;54238;52.278;21.056;2022-12-18T15:31:34;102611.00;;;-3.40
67353;BMP180;54238;52.278;21.056;2022-12-18T15:34:19;102619.20;;;-3.40
67353;BMP180;54238;52.278;21.056;2022-12-18T15:36:47;102615.40;;;-3.28
67353;BMP180;54238;52.278;21.056;2022-12-18T15:39:17;102613.20;;;-3.16
67353;BMP180;54238;52.278;21.056;2022-12-18T15:41:46;102617.80;;;-3.10
67353;BMP180;54238;52.278;21.056;2022-12-18T15:44:37;102620.40;;;-3.10
67353;BMP180;54238;52.278;21.056;2022-12-18T15:47:12;102626.20;;;-3.10
67353;BMP180;54238;52.278;21.056;2022-12-18T15:49:42;102623.00;;;-3.18
67353;BMP180;54238;52.278;21.056;2022-12-18T15:52:13;102625.20;;;-3.20
67353;BMP180;54238;52.278;21.056;2022-12-18T15:54:43;102620.20;;;-3.30
67353;BMP180;54238;52.278;21.056;2022-12-18T15:57:31;102625.60;;;-3.34
67353;BMP180;54238;52.278;21.056;2022-12-18T16:00:00;102627.60;;;-3.40
67353;BMP180;54238;52.278;21.056;2022-12-18T16:02:30;102626.20;;;-3.30
67353;BMP180;54238;52.278;21.056;2022-12-18T16:05:00;102630.60;;;-3.20
67353;BMP180;54238;52.278;21.056;2022-12-18T16:07:33;102636.40;;;-3.20
67353;BMP180;54238;52.278;21.056;2022-12-18T16:10:00;102642.40;;;-3.10
67353;BMP180;54238;52.278;21.056;2022-12-18T16:12:27;102633.80;;;-3.00
67353;BMP180;54238;52.278;21.056;2022-12-18T16:14:54;102634.40;;;-2.86
67353;BMP180;54238;52.278;21.056;2022-12-18T16:17:23;102631.40;;;-2.72
67353;BMP180;54238;52.278;21.056;2022-12-18T16:19:55;102638.40;;;-2.66
67353;BMP180;54238;52.278;21.056;2022-12-18T16:25:27;102642.80;;;-2.70
67353;BMP180;54238;52.278;21.056;2022-12-18T16:27:55;102641.00;;;-2.80
67353;BMP180;54238;52.278;21.056;2022-12-18T16:30:28;102643.20;;;-2.90
67353;BMP180;54238;52.278;21.056;2022-12-18T16:33:01;102639.60;;;-3.00
67353;BMP180;54238;52.278;21.056;2022-12-18T16:35:37;102636.80;;;-3.10
67353;BMP180;54238;52.278;21.056;2022-12-18T16:38:04;102636.20;;;-3.20
67353;BMP180;54238;52.278;21.056;2022-12-18T16:40:34;102633.40;;;-3.22
67353;BMP180;54238;52.278;21.056;2022-12-18T16:43:21;102627.60;;;-3.22
67353;BMP180;54238;52.278;21.056;2022-12-18T16:45:53;102627.60;;;-3.10
67353;BMP180;54238;52.278;21.056;2022-12-18T16:48:24;102632.80;;;-2.90
67353;BMP180;54238;52.278;21.056;2022-12-18T16:51:02;102644.40;;;-2.70
67353;BMP180;54238;52.278;21.056;2022-12-18T16:53:34;102640.40;;;-2.58
67353;BMP180;54238;52.278;21.056;2022-12-18T16:56:02;102642.40;;;-2.50
67353;BMP180;54238;52.278;21.056;2022-12-18T16:58:29;102645.40;;;-2.60
67353;BMP180;54238;52.278;21.056;2022-12-18T17:00:59;102648.40;;;-2.60